createdAt,value
2017-04-28T00:00:59.160Z,0
2017-04-28T00:02:07.245Z,0
2017-04-28T00:03:15.336Z,0
2017-04-28T00:04:23.419Z,0
2017-04-28T00:05:31.506Z,0
2017-04-28T00:06:39.597Z,0
2017-04-28T00:07:47.682Z,0
2017-04-28T00:08:55.760Z,0
2017-04-28T00:10:03.847Z,0
2017-04-28T00:11:11.941Z,0
2017-04-28T00:12:20.022Z,0
2017-04-28T00:13:28.101Z,0
2017-04-28T00:14:36.209Z,0
2017-04-28T00:15:44.279Z,0
2017-04-28T00:16:52.371Z,0
2017-04-28T00:18:00.454Z,0
2017-04-28T00:19:08.538Z,0
2017-04-28T00:20:16.633Z,0
2017-04-28T00:21:24.729Z,0
2017-04-28T00:22:32.810Z,0
2017-04-28T00:23:40.883Z,0
2017-04-28T00:24:49.059Z,0
2017-04-28T00:25:57.069Z,0
2017-04-28T00:27:05.154Z,0
2017-04-28T00:28:13.245Z,0
2017-04-28T00:29:21.330Z,0
2017-04-28T00:30:29.409Z,0
2017-04-28T00:31:37.504Z,0
2017-04-28T00:32:45.581Z,0
2017-04-28T00:33:53.669Z,0
2017-04-28T00:35:01.756Z,0
2017-04-28T00:36:09.834Z,0
2017-04-28T00:37:17.934Z,0
2017-04-28T00:38:26.013Z,0
2017-04-28T00:39:34.100Z,0
2017-04-28T00:40:42.183Z,0
2017-04-28T00:41:50.278Z,0
2017-04-28T00:42:58.359Z,0
2017-04-28T00:44:06.447Z,0
2017-04-28T00:45:14.527Z,0
2017-04-28T00:46:22.611Z,0
2017-04-28T00:47:30.695Z,0
2017-04-28T00:48:38.785Z,0
2017-04-28T00:49:46.878Z,0
2017-04-28T00:50:54.964Z,0
2017-04-28T00:52:03.052Z,0
2017-04-28T00:53:11.144Z,0
2017-04-28T00:54:19.222Z,0
2017-04-28T00:55:27.310Z,0
2017-04-28T00:56:35.393Z,0
2017-04-28T00:57:43.484Z,0
2017-04-28T00:58:51.568Z,0
2017-04-28T00:59:59.655Z,0
2017-04-28T01:01:07.750Z,0
2017-04-28T01:02:15.832Z,0
2017-04-28T01:03:23.917Z,0
2017-04-28T01:04:31.999Z,0
2017-04-28T01:05:40.100Z,0
2017-04-28T01:06:48.174Z,0
2017-04-28T01:07:56.259Z,0
2017-04-28T01:09:04.348Z,0
2017-04-28T01:10:12.433Z,0
2017-04-28T01:11:20.515Z,0
2017-04-28T01:12:28.604Z,0
2017-04-28T01:13:36.691Z,0
2017-04-28T01:14:44.781Z,0
2017-04-28T01:15:52.860Z,0
2017-04-28T01:17:00.953Z,0
2017-04-28T01:18:09.039Z,0
2017-04-28T01:19:17.141Z,0
2017-04-28T01:20:25.212Z,0
2017-04-28T01:21:33.781Z,0
2017-04-28T01:22:41.384Z,0
2017-04-28T01:23:49.475Z,0
2017-04-28T01:24:57.560Z,0
2017-04-28T01:26:05.647Z,0
2017-04-28T01:27:13.733Z,0
2017-04-28T01:28:21.822Z,0
2017-04-28T01:29:29.905Z,0
2017-04-28T01:30:37.991Z,0
2017-04-28T01:31:46.075Z,0
2017-04-28T01:32:54.164Z,0
2017-04-28T01:34:02.255Z,0
2017-04-28T01:35:10.332Z,0
2017-04-28T01:36:18.422Z,0
2017-04-28T01:37:26.508Z,0
2017-04-28T01:38:34.595Z,0
2017-04-28T01:39:42.677Z,0
2017-04-28T01:40:50.768Z,0
2017-04-28T01:41:58.852Z,0
2017-04-28T01:43:06.944Z,0
2017-04-28T01:44:15.029Z,0
2017-04-28T01:45:23.158Z,0
2017-04-28T01:46:31.198Z,0
2017-04-28T01:47:39.287Z,0
2017-04-28T01:48:47.377Z,0
2017-04-28T01:49:55.462Z,0
2017-04-28T01:51:03.544Z,0
2017-04-28T01:52:11.634Z,0
2017-04-28T01:53:19.720Z,0
2017-04-28T01:54:27.806Z,0
2017-04-28T01:55:35.886Z,0
2017-04-28T01:56:43.977Z,0
2017-04-28T01:57:52.059Z,0
2017-04-28T01:59:00.145Z,0
2017-04-28T02:00:08.235Z,0
2017-04-28T02:01:16.321Z,0
2017-04-28T02:02:24.409Z,0
2017-04-28T02:03:32.491Z,0
2017-04-28T02:04:40.582Z,0
2017-04-28T02:05:48.665Z,0
2017-04-28T02:06:56.747Z,0
2017-04-28T02:08:04.838Z,0
2017-04-28T02:09:12.924Z,0
2017-04-28T02:10:21.006Z,0
2017-04-28T02:11:29.092Z,0
2017-04-28T02:12:37.182Z,0
2017-04-28T02:13:45.265Z,0
2017-04-28T02:14:53.347Z,0
2017-04-28T02:16:01.439Z,0
2017-04-28T02:17:09.524Z,0
2017-04-28T02:18:17.611Z,0
2017-04-28T02:19:25.692Z,0
2017-04-28T02:20:33.782Z,0
2017-04-28T02:21:41.867Z,0
2017-04-28T02:22:49.950Z,0
2017-04-28T02:23:58.042Z,0
2017-04-28T02:25:06.129Z,0
2017-04-28T02:26:14.214Z,0
2017-04-28T02:27:22.298Z,0
2017-04-28T02:28:30.387Z,0
2017-04-28T02:29:38.481Z,0
2017-04-28T02:30:46.556Z,0
2017-04-28T02:31:54.645Z,0
2017-04-28T02:33:02.739Z,0
2017-04-28T02:34:10.812Z,0
2017-04-28T02:35:18.902Z,0
2017-04-28T02:36:26.989Z,0
2017-04-28T02:37:35.074Z,0
2017-04-28T02:38:43.157Z,0
2017-04-28T02:39:51.249Z,0
2017-04-28T02:40:59.336Z,0
2017-04-28T02:42:07.421Z,0
2017-04-28T02:43:15.516Z,0
2017-04-28T02:44:23.603Z,0
2017-04-28T02:45:31.686Z,0
2017-04-28T02:46:39.769Z,0
2017-04-28T02:47:47.858Z,0
2017-04-28T02:48:55.944Z,0
2017-04-28T02:50:04.026Z,0
2017-04-28T02:51:12.117Z,0
2017-04-28T02:52:20.207Z,0
2017-04-28T02:53:28.297Z,0
2017-04-28T02:54:36.375Z,0
2017-04-28T02:55:44.463Z,0
2017-04-28T02:56:52.546Z,0
2017-04-28T02:58:00.630Z,0
2017-04-28T02:59:08.723Z,0
2017-04-28T03:00:16.808Z,0
2017-04-28T03:01:24.894Z,0
2017-04-28T03:02:32.974Z,0
2017-04-28T03:03:41.064Z,0
2017-04-28T03:04:49.152Z,0
2017-04-28T03:05:57.234Z,0
2017-04-28T03:07:05.321Z,0
2017-04-28T03:08:13.422Z,0
2017-04-28T03:09:21.488Z,0
2017-04-28T03:10:29.573Z,0
2017-04-28T03:11:37.663Z,0
2017-04-28T03:12:45.751Z,0
2017-04-28T03:13:53.834Z,0
2017-04-28T03:15:01.923Z,0
2017-04-28T03:16:10.010Z,0
2017-04-28T03:17:18.098Z,0
2017-04-28T03:18:26.179Z,0
2017-04-28T03:19:34.267Z,0
2017-04-28T03:20:42.352Z,0
2017-04-28T03:21:50.433Z,0
2017-04-28T03:22:58.523Z,0
2017-04-28T03:24:06.609Z,0
2017-04-28T03:25:14.693Z,0
2017-04-28T03:26:22.777Z,0
2017-04-28T03:27:30.898Z,0
2017-04-28T03:28:38.956Z,0
2017-04-28T03:29:47.039Z,0
2017-04-28T03:30:55.128Z,0
2017-04-28T03:32:03.216Z,0
2017-04-28T03:33:11.300Z,0
2017-04-28T03:34:19.393Z,0
2017-04-28T03:35:27.475Z,0
2017-04-28T03:36:35.563Z,0
2017-04-28T03:37:43.643Z,0
2017-04-28T03:38:51.740Z,0
2017-04-28T03:39:59.823Z,0
2017-04-28T03:41:07.907Z,0
2017-04-28T03:42:15.994Z,0
2017-04-28T03:43:24.077Z,0
2017-04-28T03:44:32.280Z,0
2017-04-28T03:45:40.248Z,0
2017-04-28T03:46:48.336Z,0
2017-04-28T03:47:56.423Z,0
2017-04-28T03:49:04.503Z,0
2017-04-28T03:50:12.593Z,0
2017-04-28T03:51:20.679Z,0
2017-04-28T03:52:28.771Z,0
2017-04-28T03:53:36.847Z,0
2017-04-28T03:54:44.938Z,0
2017-04-28T03:55:53.020Z,0
2017-04-28T03:57:01.104Z,0
2017-04-28T03:58:09.194Z,0
2017-04-28T03:59:17.278Z,0
2017-04-28T04:00:25.358Z,0
2017-04-28T04:01:33.447Z,0
2017-04-28T04:02:41.533Z,0
2017-04-28T04:03:49.632Z,0
2017-04-28T04:04:57.706Z,0
2017-04-28T04:06:05.788Z,0
2017-04-28T04:07:13.877Z,0
2017-04-28T04:08:21.958Z,0
2017-04-28T04:09:30.044Z,0
2017-04-28T04:10:38.132Z,0
2017-04-28T04:11:46.218Z,0
2017-04-28T04:12:54.307Z,0
2017-04-28T04:14:02.446Z,0
2017-04-28T04:15:10.481Z,0
2017-04-28T04:16:18.570Z,0
2017-04-28T04:17:26.648Z,0
2017-04-28T04:18:34.740Z,0
2017-04-28T04:19:42.824Z,0
2017-04-28T04:20:50.906Z,4
2017-04-28T04:21:58.997Z,4
2017-04-28T04:23:07.082Z,4
2017-04-28T04:24:15.162Z,4
2017-04-28T04:25:23.249Z,4
2017-04-28T04:26:31.347Z,4
2017-04-28T04:27:39.426Z,4
2017-04-28T04:28:47.519Z,4
2017-04-28T04:29:55.612Z,4
2017-04-28T04:31:03.704Z,4
2017-04-28T04:32:11.778Z,4
2017-04-28T04:33:19.865Z,4
2017-04-28T04:34:27.954Z,0
2017-04-28T04:35:36.109Z,0
2017-04-28T04:36:44.177Z,0
2017-04-28T04:37:52.261Z,0
2017-04-28T04:39:00.393Z,0
2017-04-28T04:40:08.382Z,0
2017-04-28T04:41:16.466Z,0
2017-04-28T04:42:24.556Z,0
2017-04-28T04:43:32.640Z,0
2017-04-28T04:44:40.719Z,4
2017-04-28T04:45:49.187Z,4
2017-04-28T04:46:56.899Z,4
2017-04-28T04:48:05.001Z,0
2017-04-28T04:49:13.065Z,0
2017-04-28T04:50:21.147Z,0
2017-04-28T04:51:29.243Z,0
2017-04-28T04:52:37.324Z,4
2017-04-28T04:53:45.413Z,4
2017-04-28T04:54:53.499Z,4
2017-04-28T04:56:01.579Z,4
2017-04-28T04:57:09.665Z,0
2017-04-28T04:58:17.753Z,4
2017-04-28T04:59:25.836Z,4
2017-04-28T05:00:33.922Z,4
2017-04-28T05:01:42.009Z,4
2017-04-28T05:02:50.093Z,0
2017-04-28T05:03:58.180Z,4
2017-04-28T05:05:06.264Z,4
2017-04-28T05:06:14.349Z,4
2017-04-28T05:07:22.435Z,4
2017-04-28T05:08:30.517Z,4
2017-04-28T05:09:38.605Z,4
2017-04-28T05:10:46.691Z,4
2017-04-28T05:11:54.775Z,4
2017-04-28T05:13:02.894Z,4
2017-04-28T05:14:10.949Z,4
2017-04-28T05:15:19.037Z,4
2017-04-28T05:16:27.118Z,8
2017-04-28T05:17:35.205Z,4
2017-04-28T05:18:43.300Z,4
2017-04-28T05:19:51.370Z,4
2017-04-28T05:20:59.460Z,4
2017-04-28T05:22:07.547Z,8
2017-04-28T05:23:15.630Z,8
2017-04-28T05:24:23.717Z,4
2017-04-28T05:25:31.805Z,4
2017-04-28T05:26:39.889Z,4
2017-04-28T05:27:47.970Z,4
2017-04-28T05:28:56.069Z,4
2017-04-28T05:30:04.143Z,4
2017-04-28T05:31:12.226Z,4
2017-04-28T05:32:20.312Z,4
2017-04-28T05:33:28.397Z,4
2017-04-28T05:34:36.483Z,4
2017-04-28T05:35:44.568Z,4
2017-04-28T05:36:52.657Z,4
2017-04-28T05:38:00.741Z,4
2017-04-28T05:39:08.830Z,4
2017-04-28T05:40:16.912Z,4
2017-04-28T05:41:24.999Z,4
2017-04-28T05:42:33.088Z,4
2017-04-28T05:43:41.169Z,4
2017-04-28T05:44:49.255Z,4
2017-04-28T05:45:57.341Z,4
2017-04-28T05:47:05.424Z,4
2017-04-28T05:48:13.513Z,4
2017-04-28T05:49:21.596Z,4
2017-04-28T05:50:29.683Z,4
2017-04-28T05:51:37.764Z,4
2017-04-28T05:52:45.857Z,4
2017-04-28T05:53:53.939Z,8
2017-04-28T05:55:02.019Z,4
2017-04-28T05:56:10.111Z,4
2017-04-28T05:57:18.194Z,4
2017-04-28T05:58:26.277Z,8
2017-04-28T05:59:34.362Z,8
2017-04-28T06:00:42.451Z,8
2017-04-28T06:01:50.536Z,4
2017-04-28T06:02:58.626Z,4
2017-04-28T06:04:06.708Z,4
2017-04-28T06:05:14.791Z,4
2017-04-28T06:06:22.876Z,8
2017-04-28T06:07:30.956Z,8
2017-04-28T06:08:39.043Z,8
2017-04-28T06:09:47.127Z,8
2017-04-28T06:10:55.213Z,8
2017-04-28T06:12:03.302Z,8
2017-04-28T06:13:11.387Z,4
2017-04-28T06:14:19.474Z,8
2017-04-28T06:15:27.556Z,8
2017-04-28T06:16:35.644Z,8
2017-04-28T06:17:43.730Z,8
2017-04-28T06:18:51.810Z,4
2017-04-28T06:19:59.898Z,8
2017-04-28T06:21:07.985Z,8
2017-04-28T06:22:16.066Z,8
2017-04-28T06:23:24.154Z,8
2017-04-28T06:24:32.244Z,8
2017-04-28T06:25:40.328Z,8
2017-04-28T06:26:48.414Z,8
2017-04-28T06:27:56.500Z,12
2017-04-28T06:29:04.583Z,8
2017-04-28T06:30:12.695Z,8
2017-04-28T06:31:20.751Z,8
2017-04-28T06:32:28.838Z,12
2017-04-28T06:33:36.921Z,8
2017-04-28T06:34:45.005Z,12
2017-04-28T06:35:53.096Z,8
2017-04-28T06:37:01.183Z,12
2017-04-28T06:38:09.269Z,12
2017-04-28T06:39:17.352Z,12
2017-04-28T06:40:25.437Z,12
2017-04-28T06:41:33.520Z,12
2017-04-28T06:42:41.605Z,12
2017-04-28T06:43:49.691Z,12
2017-04-28T06:44:57.778Z,12
2017-04-28T06:46:05.861Z,12
2017-04-28T06:47:13.950Z,16
2017-04-28T06:48:22.036Z,12
2017-04-28T06:49:30.122Z,16
2017-04-28T06:50:38.208Z,16
2017-04-28T06:51:46.298Z,16
2017-04-28T06:52:54.386Z,16
2017-04-28T06:54:02.474Z,16
2017-04-28T06:55:10.558Z,16
2017-04-28T06:56:18.750Z,16
2017-04-28T06:57:26.728Z,16
2017-04-28T06:58:34.813Z,20
2017-04-28T06:59:42.905Z,16
2017-04-28T07:00:50.990Z,20
2017-04-28T07:01:59.072Z,16
2017-04-28T07:03:07.160Z,16
2017-04-28T07:04:15.245Z,16
2017-04-28T07:05:23.329Z,16
2017-04-28T07:06:31.409Z,16
2017-04-28T07:07:39.499Z,16
2017-04-28T07:08:47.584Z,16
2017-04-28T07:09:55.668Z,16
2017-04-28T07:11:03.764Z,16
2017-04-28T07:12:11.843Z,16
2017-04-28T07:13:19.927Z,12
2017-04-28T07:14:28.055Z,16
2017-04-28T07:15:36.101Z,16
2017-04-28T07:16:44.248Z,16
2017-04-28T07:17:52.272Z,16
2017-04-28T07:19:00.361Z,12
2017-04-28T07:20:08.440Z,16
2017-04-28T07:21:16.530Z,16
2017-04-28T07:22:24.615Z,12
2017-04-28T07:23:32.700Z,16
2017-04-28T07:24:40.791Z,16
2017-04-28T07:25:48.871Z,16
2017-04-28T07:26:56.959Z,16
2017-04-28T07:28:05.049Z,16
2017-04-28T07:29:13.130Z,20
2017-04-28T07:30:21.215Z,16
2017-04-28T07:31:29.304Z,20
2017-04-28T07:32:37.393Z,20
2017-04-28T07:33:45.494Z,16
2017-04-28T07:34:53.561Z,20
2017-04-28T07:36:01.647Z,16
2017-04-28T07:37:09.731Z,16
2017-04-28T07:38:17.815Z,16
2017-04-28T07:39:25.903Z,20
2017-04-28T07:40:33.991Z,20
2017-04-28T07:41:42.072Z,20
2017-04-28T07:42:50.160Z,16
2017-04-28T07:43:58.248Z,20
2017-04-28T07:45:06.335Z,20
2017-04-28T07:46:14.415Z,20
2017-04-28T07:47:22.502Z,16
2017-04-28T07:48:30.585Z,16
2017-04-28T07:49:38.671Z,20
2017-04-28T07:50:46.776Z,20
2017-04-28T07:51:54.843Z,20
2017-04-28T07:53:02.927Z,20
2017-04-28T07:54:11.008Z,20
2017-04-28T07:55:19.102Z,24
2017-04-28T07:56:27.183Z,20
2017-04-28T07:57:35.274Z,24
2017-04-28T07:58:43.356Z,20
2017-04-28T07:59:51.439Z,24
2017-04-28T08:00:59.521Z,24
2017-04-28T08:02:07.609Z,20
2017-04-28T08:03:15.693Z,24
2017-04-28T08:04:23.780Z,24
2017-04-28T08:05:31.863Z,24
2017-04-28T08:06:39.951Z,24
2017-04-28T08:07:48.059Z,24
2017-04-28T08:08:56.119Z,28
2017-04-28T08:10:04.213Z,24
2017-04-28T08:11:12.295Z,24
2017-04-28T08:12:20.374Z,24
2017-04-28T08:13:28.461Z,28
2017-04-28T08:14:36.548Z,28
2017-04-28T08:15:44.641Z,24
2017-04-28T08:16:52.727Z,24
2017-04-28T08:18:00.810Z,24
2017-04-28T08:19:09.179Z,28
2017-04-28T08:20:16.980Z,24
2017-04-28T08:21:25.065Z,24
2017-04-28T08:22:33.150Z,24
2017-04-28T08:23:41.239Z,24
2017-04-28T08:24:49.322Z,24
2017-04-28T08:25:57.412Z,20
2017-04-28T08:27:05.649Z,24
2017-04-28T08:28:13.588Z,20
2017-04-28T08:29:21.661Z,20
2017-04-28T08:30:29.754Z,20
2017-04-28T08:31:37.837Z,20
2017-04-28T08:32:45.920Z,20
2017-04-28T08:33:54.007Z,20
2017-04-28T08:35:02.086Z,20
2017-04-28T08:36:10.182Z,24
2017-04-28T08:37:18.258Z,24
2017-04-28T08:38:26.346Z,20
2017-04-28T08:39:34.434Z,20
2017-04-28T08:40:42.517Z,24
2017-04-28T08:41:50.603Z,20
2017-04-28T08:42:58.690Z,24
2017-04-28T08:44:06.769Z,24
2017-04-28T08:45:14.856Z,28
2017-04-28T08:46:22.944Z,24
2017-04-28T08:47:31.034Z,28
2017-04-28T08:48:39.124Z,24
2017-04-28T08:49:47.211Z,24
2017-04-28T08:50:55.301Z,24
2017-04-28T08:52:03.383Z,28
2017-04-28T08:53:11.465Z,24
2017-04-28T08:54:19.555Z,28
2017-04-28T08:55:27.638Z,28
2017-04-28T08:56:35.721Z,28
2017-04-28T08:57:43.809Z,28
2017-04-28T08:58:51.895Z,28
2017-04-28T08:59:59.978Z,32
2017-04-28T09:01:08.061Z,28
2017-04-28T09:02:16.150Z,32
2017-04-28T09:03:24.242Z,32
2017-04-28T09:04:32.326Z,32
2017-04-28T09:05:40.411Z,32
2017-04-28T09:06:48.494Z,32
2017-04-28T09:07:56.574Z,32
2017-04-28T09:09:04.665Z,32
2017-04-28T09:10:12.753Z,32
2017-04-28T09:11:20.834Z,32
2017-04-28T09:12:28.922Z,32
2017-04-28T09:13:37.008Z,32
2017-04-28T09:14:45.094Z,32
2017-04-28T09:15:53.184Z,32
2017-04-28T09:17:01.268Z,32
2017-04-28T09:18:09.355Z,36
2017-04-28T09:19:17.439Z,32
2017-04-28T09:20:25.522Z,32
2017-04-28T09:21:33.612Z,36
2017-04-28T09:22:41.696Z,36
2017-04-28T09:23:49.778Z,32
2017-04-28T09:24:57.864Z,32
2017-04-28T09:26:05.950Z,36
2017-04-28T09:27:14.041Z,36
2017-04-28T09:28:22.119Z,36
2017-04-28T09:29:30.238Z,36
2017-04-28T09:30:38.290Z,36
2017-04-28T09:31:46.373Z,32
2017-04-28T09:32:54.613Z,32
2017-04-28T09:34:02.546Z,36
2017-04-28T09:35:10.627Z,32
2017-04-28T09:36:18.714Z,32
2017-04-28T09:37:26.798Z,32
2017-04-28T09:38:34.886Z,32
2017-04-28T09:39:42.971Z,32
2017-04-28T09:40:51.054Z,32
2017-04-28T09:41:59.139Z,32
2017-04-28T09:43:07.224Z,32
2017-04-28T09:44:15.327Z,32
2017-04-28T09:45:23.405Z,36
2017-04-28T09:46:31.479Z,32
2017-04-28T09:47:39.566Z,36
2017-04-28T09:48:47.655Z,36
2017-04-28T09:49:55.741Z,36
2017-04-28T09:51:03.827Z,32
2017-04-28T09:52:11.908Z,32
2017-04-28T09:53:19.993Z,36
2017-04-28T09:54:28.414Z,36
2017-04-28T09:55:36.159Z,36
2017-04-28T09:56:44.269Z,36
2017-04-28T09:57:52.333Z,40
2017-04-28T09:59:00.417Z,40
2017-04-28T10:00:08.500Z,40
2017-04-28T10:01:16.832Z,40
2017-04-28T10:02:24.677Z,40
2017-04-28T10:03:32.757Z,40
2017-04-28T10:04:40.850Z,40
2017-04-28T10:05:48.929Z,40
2017-04-28T10:06:57.100Z,40
2017-04-28T10:08:05.112Z,44
2017-04-28T10:09:13.210Z,40
2017-04-28T10:10:21.637Z,40
2017-04-28T10:11:29.373Z,44
2017-04-28T10:12:37.469Z,40
2017-04-28T10:13:45.548Z,44
2017-04-28T10:14:53.632Z,44
2017-04-28T10:16:01.718Z,44
2017-04-28T10:17:09.808Z,44
2017-04-28T10:18:17.891Z,44
2017-04-28T10:19:25.981Z,44
2017-04-28T10:20:34.069Z,44
2017-04-28T10:21:42.152Z,44
2017-04-28T10:22:50.236Z,44
2017-04-28T10:23:58.327Z,44
2017-04-28T10:25:06.412Z,40
2017-04-28T10:26:14.499Z,40
2017-04-28T10:27:22.580Z,40
2017-04-28T10:28:30.669Z,40
2017-04-28T10:29:38.754Z,40
2017-04-28T10:30:46.836Z,40
2017-04-28T10:31:54.928Z,40
2017-04-28T10:33:03.009Z,40
2017-04-28T10:34:11.095Z,40
2017-04-28T10:35:19.175Z,44
2017-04-28T10:36:27.336Z,40
2017-04-28T10:37:35.352Z,44
2017-04-28T10:38:43.435Z,40
2017-04-28T10:39:51.524Z,40
2017-04-28T10:40:59.608Z,40
2017-04-28T10:42:07.694Z,40
2017-04-28T10:43:15.778Z,40
2017-04-28T10:44:23.866Z,40
2017-04-28T10:45:31.951Z,40
2017-04-28T10:46:40.036Z,36
2017-04-28T10:47:48.126Z,36
2017-04-28T10:48:56.215Z,36
2017-04-28T10:50:04.300Z,44
2017-04-28T10:51:12.391Z,44
2017-04-28T10:52:20.473Z,40
2017-04-28T10:53:28.612Z,40
2017-04-28T10:54:36.638Z,44
2017-04-28T10:55:44.726Z,44
2017-04-28T10:56:52.812Z,40
2017-04-28T10:58:00.890Z,40
2017-04-28T10:59:08.977Z,40
2017-04-28T11:00:17.067Z,48
2017-04-28T11:01:25.155Z,52
2017-04-28T11:02:33.242Z,52
2017-04-28T11:03:41.326Z,52
2017-04-28T11:04:49.717Z,52
2017-04-28T11:05:57.687Z,52
2017-04-28T11:07:06.216Z,56
2017-04-28T11:08:13.668Z,48
2017-04-28T11:09:21.754Z,44
2017-04-28T11:10:29.859Z,44
2017-04-28T11:11:37.934Z,40
2017-04-28T11:12:46.014Z,40
2017-04-28T11:13:54.100Z,44
2017-04-28T11:15:02.183Z,44
2017-04-28T11:16:10.271Z,40
2017-04-28T11:17:18.361Z,36
2017-04-28T11:18:26.454Z,40
2017-04-28T11:19:34.532Z,40
2017-04-28T11:20:42.617Z,36
2017-04-28T11:21:50.700Z,40
2017-04-28T11:22:58.790Z,40
2017-04-28T11:24:06.881Z,40
2017-04-28T11:25:14.961Z,40
2017-04-28T11:26:23.042Z,40
2017-04-28T11:27:31.151Z,44
2017-04-28T11:28:39.215Z,40
2017-04-28T11:29:47.339Z,40
2017-04-28T11:30:55.386Z,36
2017-04-28T11:32:03.558Z,36
2017-04-28T11:33:11.554Z,32
2017-04-28T11:34:19.644Z,40
2017-04-28T11:35:27.733Z,40
2017-04-28T11:36:35.819Z,44
2017-04-28T11:37:43.900Z,44
2017-04-28T11:38:51.988Z,48
2017-04-28T11:40:00.080Z,48
2017-04-28T11:41:08.183Z,48
2017-04-28T11:42:16.249Z,48
2017-04-28T11:43:24.335Z,48
2017-04-28T11:44:32.421Z,48
2017-04-28T11:45:40.502Z,44
2017-04-28T11:46:48.593Z,44
2017-04-28T11:47:56.742Z,40
2017-04-28T11:49:04.804Z,40
2017-04-28T11:50:12.842Z,44
2017-04-28T11:51:20.932Z,40
2017-04-28T11:52:29.017Z,36
2017-04-28T11:53:37.098Z,32
2017-04-28T11:54:45.328Z,32
2017-04-28T11:55:53.274Z,28
2017-04-28T11:57:01.772Z,24
2017-04-28T11:58:09.442Z,20
2017-04-28T11:59:17.530Z,20
2017-04-28T12:00:25.617Z,16
2017-04-28T12:01:33.699Z,20
2017-04-28T12:02:41.787Z,16
2017-04-28T12:03:49.878Z,16
2017-04-28T12:04:57.961Z,12
2017-04-28T12:06:06.052Z,16
2017-04-28T12:07:14.130Z,16
2017-04-28T12:08:22.213Z,16
2017-04-28T12:09:30.299Z,16
2017-04-28T12:10:38.389Z,16
2017-04-28T12:11:46.473Z,20
2017-04-28T12:12:54.560Z,16
2017-04-28T12:14:02.649Z,16
2017-04-28T12:15:10.737Z,20
2017-04-28T12:16:18.824Z,16
2017-04-28T12:17:26.903Z,20
2017-04-28T12:18:34.994Z,20
2017-04-28T12:19:43.084Z,24
2017-04-28T12:20:51.164Z,20
2017-04-28T12:21:59.254Z,20
2017-04-28T12:23:07.342Z,24
2017-04-28T12:24:15.421Z,24
2017-04-28T12:25:23.507Z,20
2017-04-28T12:26:31.600Z,24
2017-04-28T12:27:39.684Z,24
2017-04-28T12:28:47.775Z,24
2017-04-28T12:29:55.858Z,28
2017-04-28T12:31:03.948Z,28
2017-04-28T12:32:12.026Z,28
2017-04-28T12:33:20.111Z,28
2017-04-28T12:34:28.200Z,28
2017-04-28T12:35:36.285Z,28
2017-04-28T12:36:44.367Z,28
2017-04-28T12:37:52.456Z,28
2017-04-28T12:39:00.541Z,28
2017-04-28T12:40:08.631Z,28
2017-04-28T12:41:16.718Z,28
2017-04-28T12:42:24.806Z,28
2017-04-28T12:43:32.891Z,32
2017-04-28T12:44:41.477Z,32
2017-04-28T12:45:49.060Z,32
2017-04-28T12:46:57.601Z,32
2017-04-28T12:48:05.227Z,36
2017-04-28T12:49:13.624Z,36
2017-04-28T12:50:21.409Z,32
2017-04-28T12:51:29.492Z,36
2017-04-28T12:52:37.581Z,36
2017-04-28T12:53:45.663Z,36
2017-04-28T12:54:53.750Z,32
2017-04-28T12:56:01.835Z,32
2017-04-28T12:57:09.913Z,32
2017-04-28T12:58:18.004Z,28
2017-04-28T12:59:26.091Z,28
2017-04-28T13:00:34.171Z,24
2017-04-28T13:01:42.264Z,20
2017-04-28T13:02:50.421Z,16
2017-04-28T13:03:58.433Z,20
2017-04-28T13:05:06.514Z,16
2017-04-28T13:06:15.076Z,20
2017-04-28T13:07:22.692Z,16
2017-04-28T13:08:30.771Z,16
2017-04-28T13:09:38.860Z,12
2017-04-28T13:10:46.961Z,16
2017-04-28T13:11:55.033Z,12
2017-04-28T13:13:03.119Z,12
2017-04-28T13:14:11.205Z,8
2017-04-28T13:15:19.294Z,12
2017-04-28T13:16:27.390Z,8
2017-04-28T13:17:35.462Z,12
2017-04-28T13:18:43.546Z,12
2017-04-28T13:19:51.629Z,16
2017-04-28T13:20:59.723Z,16
2017-04-28T13:22:07.808Z,20
2017-04-28T13:23:15.892Z,24
2017-04-28T13:24:23.977Z,28
2017-04-28T13:25:32.065Z,32
2017-04-28T13:26:40.172Z,36
2017-04-28T13:27:48.239Z,40
2017-04-28T13:28:56.319Z,40
2017-04-28T13:30:04.416Z,40
2017-04-28T13:31:12.504Z,40
2017-04-28T13:32:20.578Z,40
2017-04-28T13:33:28.669Z,40
2017-04-28T13:34:37.141Z,40
2017-04-28T13:35:44.838Z,40
2017-04-28T13:36:52.928Z,40
2017-04-28T13:38:01.013Z,44
2017-04-28T13:39:09.101Z,40
2017-04-28T13:40:18.414Z,36
2017-04-28T13:41:25.277Z,36
2017-04-28T13:42:33.362Z,32
2017-04-28T13:43:41.445Z,32
2017-04-28T13:44:49.533Z,32
2017-04-28T13:45:57.618Z,36
2017-04-28T13:47:05.700Z,32
2017-04-28T13:48:13.788Z,40
2017-04-28T13:49:21.873Z,40
2017-04-28T13:50:29.958Z,40
2017-04-28T13:51:38.040Z,44
2017-04-28T13:52:46.140Z,44
2017-04-28T13:53:54.215Z,36
2017-04-28T13:55:02.302Z,40
2017-04-28T13:56:10.401Z,40
2017-04-28T13:57:18.472Z,40
2017-04-28T13:58:26.560Z,40
2017-04-28T13:59:34.644Z,36
2017-04-28T14:00:42.731Z,40
2017-04-28T14:01:50.814Z,40
2017-04-28T14:02:58.899Z,36
2017-04-28T14:04:06.984Z,36
2017-04-28T14:05:15.072Z,36
2017-04-28T14:06:23.164Z,32
2017-04-28T14:07:31.248Z,32
2017-04-28T14:08:39.339Z,32
2017-04-28T14:09:47.421Z,32
2017-04-28T14:10:55.506Z,28
2017-04-28T14:12:03.595Z,28
2017-04-28T14:13:11.772Z,28
2017-04-28T14:14:19.768Z,28
2017-04-28T14:15:27.851Z,28
2017-04-28T14:16:35.941Z,28
2017-04-28T14:17:44.032Z,28
2017-04-28T14:18:52.109Z,32
2017-04-28T14:20:00.540Z,32
2017-04-28T14:21:08.283Z,32
2017-04-28T14:22:16.365Z,32
2017-04-28T14:23:24.450Z,32
2017-04-28T14:24:32.539Z,36
2017-04-28T14:25:40.625Z,32
2017-04-28T14:26:48.707Z,32
2017-04-28T14:27:56.796Z,32
2017-04-28T14:29:04.881Z,32
2017-04-28T14:30:12.967Z,32
2017-04-28T14:31:21.056Z,32
2017-04-28T14:32:29.150Z,40
2017-04-28T14:33:37.224Z,36
2017-04-28T14:34:45.316Z,36
2017-04-28T14:35:53.399Z,36
2017-04-28T14:37:01.486Z,32
2017-04-28T14:38:09.571Z,40
2017-04-28T14:39:17.654Z,32
2017-04-28T14:40:25.751Z,36
2017-04-28T14:41:33.832Z,36
2017-04-28T14:42:41.918Z,36
2017-04-28T14:43:50.008Z,36
2017-04-28T14:44:58.094Z,40
2017-04-28T14:46:06.179Z,40
2017-04-28T14:47:14.258Z,36
2017-04-28T14:48:22.350Z,32
2017-04-28T14:49:30.441Z,36
2017-04-28T14:50:38.520Z,36
2017-04-28T14:51:46.610Z,36
2017-04-28T14:52:54.698Z,40
2017-04-28T14:54:02.783Z,36
2017-04-28T14:55:10.865Z,36
2017-04-28T14:56:18.955Z,36
2017-04-28T14:57:27.041Z,36
2017-04-28T14:58:35.129Z,36
2017-04-28T14:59:43.218Z,32
2017-04-28T15:00:51.323Z,44
2017-04-28T15:01:59.385Z,36
2017-04-28T15:03:07.470Z,36
2017-04-28T15:04:15.553Z,32
2017-04-28T15:05:23.643Z,32
2017-04-28T15:06:31.727Z,32
2017-04-28T15:07:39.817Z,32
2017-04-28T15:08:47.904Z,24
2017-04-28T15:09:55.988Z,24
2017-04-28T15:11:04.079Z,28
2017-04-28T15:12:12.165Z,32
2017-04-28T15:13:20.251Z,32
2017-04-28T15:14:28.860Z,36
2017-04-28T15:15:36.422Z,36
2017-04-28T15:16:44.513Z,24
2017-04-28T15:17:52.598Z,20
2017-04-28T15:19:00.686Z,16
2017-04-28T15:20:08.768Z,16
2017-04-28T15:21:16.857Z,16
2017-04-28T15:22:24.957Z,16
2017-04-28T15:23:33.037Z,16
2017-04-28T15:24:41.126Z,16
2017-04-28T15:25:49.207Z,16
2017-04-28T15:26:57.296Z,24
2017-04-28T15:28:05.384Z,24
2017-04-28T15:29:13.473Z,28
2017-04-28T15:30:21.557Z,24
2017-04-28T15:31:29.642Z,20
2017-04-28T15:32:37.728Z,20
2017-04-28T15:33:45.811Z,20
2017-04-28T15:34:53.902Z,20
2017-04-28T15:36:01.987Z,20
2017-04-28T15:37:10.073Z,24
2017-04-28T15:38:18.155Z,24
2017-04-28T15:39:26.246Z,20
2017-04-28T15:40:34.329Z,28
2017-04-28T15:41:42.417Z,24
2017-04-28T15:42:50.501Z,24
2017-04-28T15:43:58.585Z,24
2017-04-28T15:45:06.670Z,32
2017-04-28T15:46:14.756Z,32
2017-04-28T15:47:22.845Z,24
2017-04-28T15:48:30.931Z,20
2017-04-28T15:49:39.014Z,20
2017-04-28T15:50:47.107Z,20
2017-04-28T15:51:55.190Z,16
2017-04-28T15:53:03.275Z,16
2017-04-28T15:54:11.359Z,20
2017-04-28T15:55:19.498Z,24
2017-04-28T15:56:27.535Z,20
2017-04-28T15:57:35.616Z,12
2017-04-28T15:58:43.710Z,12
2017-04-28T15:59:51.792Z,12
2017-04-28T16:00:59.874Z,12
2017-04-28T16:02:07.963Z,12
2017-04-28T16:03:16.057Z,12
2017-04-28T16:04:24.133Z,12
2017-04-28T16:05:32.215Z,16
2017-04-28T16:06:40.386Z,16
2017-04-28T16:07:48.395Z,20
2017-04-28T16:08:56.478Z,28
2017-04-28T16:10:04.564Z,24
2017-04-28T16:11:12.655Z,20
2017-04-28T16:12:20.738Z,24
2017-04-28T16:13:28.822Z,20
2017-04-28T16:14:36.913Z,20
2017-04-28T16:15:44.996Z,16
2017-04-28T16:16:53.081Z,16
2017-04-28T16:18:01.165Z,20
2017-04-28T16:19:09.256Z,16
2017-04-28T16:20:17.339Z,16
2017-04-28T16:21:25.424Z,20
2017-04-28T16:22:33.518Z,16
2017-04-28T16:23:41.606Z,20
2017-04-28T16:24:49.697Z,20
2017-04-28T16:25:57.772Z,20